createdAt,value
2019-01-29T00:01:43.946Z,24.87
2019-01-29T00:04:16.568Z,16.33
2019-01-29T00:06:48.768Z,21.43
2019-01-29T00:09:21.313Z,22.07
2019-01-29T00:11:54.097Z,17.97
2019-01-29T00:14:26.644Z,19.70
2019-01-29T00:16:59.524Z,19.83
2019-01-29T00:19:32.695Z,19.27
2019-01-29T00:22:05.529Z,19.83
2019-01-29T00:24:37.613Z,15.30
2019-01-29T00:27:09.352Z,17.50
2019-01-29T00:29:41.769Z,17.07
2019-01-29T00:32:13.940Z,17.03
2019-01-29T00:34:46.210Z,13.90
2019-01-29T00:37:18.051Z,16.97
2019-01-29T00:39:49.704Z,18.70
2019-01-29T00:42:23.631Z,16.00
2019-01-29T00:44:55.508Z,16.43
2019-01-29T00:47:27.356Z,18.37
2019-01-29T00:50:05.421Z,17.47
2019-01-29T00:52:42.167Z,18.83
2019-01-29T00:55:12.494Z,21.33
2019-01-29T00:57:44.297Z,14.27
2019-01-29T01:00:20.457Z,14.20
2019-01-29T01:02:52.403Z,15.53
2019-01-29T01:05:23.876Z,13.53
2019-01-29T01:07:55.474Z,15.03
2019-01-29T01:10:28.632Z,16.77
2019-01-29T01:13:01.477Z,13.23
2019-01-29T01:15:33.401Z,16.53
2019-01-29T01:18:05.267Z,15.90
2019-01-29T01:20:37.269Z,12.90
2019-01-29T01:23:09.258Z,20.83
2019-01-29T01:25:41.036Z,17.80
2019-01-29T01:28:12.774Z,17.50
2019-01-29T01:30:44.595Z,18.33
2019-01-29T01:33:18.017Z,12.57
2019-01-29T01:35:50.755Z,17.03
2019-01-29T01:38:22.302Z,14.63
2019-01-29T01:40:54.343Z,14.53
2019-01-29T01:43:27.082Z,15.87
2019-01-29T01:45:59.596Z,10.23
2019-01-29T01:48:31.573Z,11.77
2019-01-29T01:51:04.158Z,13.60
2019-01-29T01:53:36.116Z,12.30
2019-01-29T01:56:08.053Z,20.80
2019-01-29T01:58:40.100Z,17.27
2019-01-29T02:01:11.654Z,10.83
2019-01-29T02:03:43.369Z,15.17
2019-01-29T02:06:15.904Z,17.63
2019-01-29T02:08:48.011Z,14.00
2019-01-29T02:11:20.321Z,15.23
2019-01-29T02:13:52.481Z,16.47
2019-01-29T02:16:24.023Z,14.00
2019-01-29T02:19:00.489Z,13.67
2019-01-29T02:21:32.836Z,17.17
2019-01-29T02:24:05.073Z,11.77
2019-01-29T02:26:36.871Z,18.23
2019-01-29T02:29:08.757Z,14.30
2019-01-29T02:31:40.325Z,16.43
2019-01-29T02:34:12.173Z,18.20
2019-01-29T02:36:44.102Z,15.40
2019-01-29T02:39:15.915Z,14.97
2019-01-29T02:41:47.628Z,17.87
2019-01-29T02:44:19.544Z,17.07
2019-01-29T02:46:51.281Z,12.83
2019-01-29T02:49:23.069Z,15.83
2019-01-29T02:51:55.169Z,14.23
2019-01-29T02:54:27.306Z,14.20
2019-01-29T02:56:58.828Z,11.10
2019-01-29T02:59:30.548Z,17.60
2019-01-29T03:02:02.997Z,14.07
2019-01-29T03:04:36.316Z,11.57
2019-01-29T03:07:10.109Z,14.07
2019-01-29T03:09:42.865Z,12.77
2019-01-29T03:12:14.682Z,15.20
2019-01-29T03:14:46.428Z,12.73
2019-01-29T03:17:17.905Z,19.37
2019-01-29T03:19:51.150Z,13.70
2019-01-29T03:22:23.724Z,13.17
2019-01-29T03:24:55.889Z,14.90
2019-01-29T03:27:28.130Z,12.70
2019-01-29T03:30:01.981Z,16.67
2019-01-29T03:32:33.930Z,18.20
2019-01-29T03:35:08.995Z,20.60
2019-01-29T03:37:40.862Z,14.37
2019-01-29T03:40:15.714Z,18.77
2019-01-29T03:42:47.608Z,14.77
2019-01-29T03:45:19.768Z,17.93
2019-01-29T03:47:52.095Z,19.37
2019-01-29T03:50:24.989Z,20.20
2019-01-29T03:52:56.328Z,19.97
2019-01-29T03:55:28.677Z,22.87
2019-01-29T03:58:00.538Z,25.87
2019-01-29T04:00:32.398Z,21.53
2019-01-29T04:03:04.351Z,20.27
2019-01-29T04:05:36.273Z,21.07
2019-01-29T04:08:08.371Z,23.27
2019-01-29T04:10:40.016Z,23.50
2019-01-29T04:13:12.130Z,26.93
2019-01-29T04:15:44.480Z,25.67
2019-01-29T04:18:16.680Z,22.30
2019-01-29T04:20:48.689Z,24.13
2019-01-29T04:23:21.980Z,22.63
2019-01-29T04:25:56.017Z,25.67
2019-01-29T04:28:27.575Z,23.97
2019-01-29T04:30:59.340Z,26.53
2019-01-29T04:33:31.152Z,23.43
2019-01-29T04:36:03.123Z,27.43
2019-01-29T04:38:35.181Z,23.30
2019-01-29T04:41:07.075Z,23.30
2019-01-29T04:43:39.288Z,23.77
2019-01-29T04:46:10.910Z,23.30
2019-01-29T04:48:42.922Z,26.97
2019-01-29T04:51:15.188Z,24.10
2019-01-29T04:53:56.860Z,25.53
2019-01-29T04:56:20.981Z,24.07
2019-01-29T04:58:52.583Z,25.67
2019-01-29T05:01:24.715Z,21.73
2019-01-29T05:03:57.009Z,28.50
2019-01-29T05:06:28.902Z,25.87
2019-01-29T05:09:02.335Z,26.20
2019-01-29T05:11:36.111Z,28.43
2019-01-29T05:14:15.145Z,30.33
2019-01-29T05:16:48.226Z,31.90
2019-01-29T05:19:21.991Z,33.13
2019-01-29T05:21:55.258Z,34.40
2019-01-29T05:24:28.475Z,36.17
2019-01-29T05:27:02.954Z,37.53
2019-01-29T05:29:35.185Z,36.67
2019-01-29T05:32:07.531Z,32.73
2019-01-29T05:34:39.140Z,38.73
2019-01-29T05:37:10.570Z,40.33
2019-01-29T05:52:17.354Z,39.93
2019-01-29T05:54:49.495Z,47.30
2019-01-29T05:57:25.025Z,43.57
2019-01-29T05:59:57.334Z,42.73
2019-01-29T06:02:29.719Z,41.60
2019-01-29T06:05:00.516Z,45.67
2019-01-29T06:07:31.008Z,41.23
2019-01-29T06:10:02.957Z,44.10
2019-01-29T06:12:35.081Z,37.33
2019-01-29T06:15:08.933Z,38.13
2019-01-29T06:17:41.387Z,42.40
2019-01-29T06:20:19.354Z,42.47
2019-01-29T06:22:51.846Z,42.67
2019-01-29T06:25:24.308Z,40.37
2019-01-29T06:27:57.067Z,41.90
2019-01-29T06:30:28.544Z,38.20
2019-01-29T06:32:59.639Z,34.60
2019-01-29T06:35:30.820Z,40.23
2019-01-29T06:38:03.811Z,36.23
2019-01-29T06:40:36.401Z,40.77
2019-01-29T06:43:10.862Z,39.70
2019-01-29T06:45:43.288Z,37.87
2019-01-29T06:48:19.065Z,45.30
2019-01-29T06:50:51.151Z,43.20
2019-01-29T06:53:22.867Z,37.67
2019-01-29T06:55:55.278Z,40.17
2019-01-29T06:58:28.764Z,39.33
2019-01-29T07:00:59.327Z,38.03
2019-01-29T07:03:29.907Z,38.20
2019-01-29T07:06:00.567Z,37.80
2019-01-29T07:08:31.194Z,41.10
2019-01-29T07:11:02.289Z,38.77
2019-01-29T07:13:33.065Z,37.27
2019-01-29T07:16:25.482Z,40.10
2019-01-29T07:19:00.992Z,34.80
2019-01-29T07:21:36.753Z,37.03
2019-01-29T07:24:07.866Z,34.77
2019-01-29T07:26:38.546Z,38.30
2019-01-29T07:29:10.463Z,38.93
2019-01-29T07:31:41.475Z,40.23
2019-01-29T07:34:12.455Z,36.10
2019-01-29T07:36:43.373Z,40.40
2019-01-29T07:39:14.223Z,37.30
2019-01-29T07:41:45.561Z,38.10
2019-01-29T07:44:16.367Z,35.63
2019-01-29T07:46:47.346Z,36.83
2019-01-29T07:49:18.460Z,32.90
2019-01-29T07:51:49.615Z,37.63
2019-01-29T07:54:21.226Z,34.93
2019-01-29T07:56:52.062Z,39.77
2019-01-29T07:59:32.642Z,37.57
2019-01-29T08:01:57.055Z,37.83
2019-01-29T08:04:27.910Z,38.47
2019-01-29T08:06:58.731Z,31.93
2019-01-29T08:09:29.715Z,35.40
2019-01-29T08:12:00.949Z,33.17
2019-01-29T08:14:32.803Z,31.93
2019-01-29T08:17:03.908Z,35.97
2019-01-29T08:19:35.485Z,34.77
2019-01-29T08:22:08.756Z,40.73
2019-01-29T08:24:39.882Z,34.50
2019-01-29T08:27:10.570Z,34.70
2019-01-29T08:29:41.780Z,28.07
2019-01-29T08:32:12.769Z,32.60
2019-01-29T08:34:43.827Z,30.63
2019-01-29T08:37:14.794Z,31.23
2019-01-29T08:39:45.863Z,30.57
2019-01-29T08:42:17.257Z,30.33
2019-01-29T08:44:48.431Z,34.70
2019-01-29T08:47:19.681Z,39.33
2019-01-29T08:49:52.241Z,31.27
2019-01-29T08:52:25.170Z,31.83
2019-01-29T08:54:56.210Z,31.43
2019-01-29T08:57:28.302Z,31.90
2019-01-29T09:00:00.142Z,29.20
2019-01-29T09:02:31.284Z,29.30
2019-01-29T09:05:02.100Z,27.53
2019-01-29T09:07:33.151Z,33.03
2019-01-29T09:10:04.423Z,30.27
2019-01-29T09:12:35.657Z,23.53
2019-01-29T09:15:09.006Z,30.03
2019-01-29T09:17:40.449Z,29.17
2019-01-29T09:20:13.271Z,27.70
2019-01-29T09:22:44.074Z,25.67
2019-01-29T09:25:20.893Z,22.33
2019-01-29T09:27:48.437Z,31.67
2019-01-29T09:30:19.919Z,24.30
2019-01-29T09:32:50.931Z,27.13
2019-01-29T09:35:22.220Z,28.33
2019-01-29T09:37:53.329Z,26.53
2019-01-29T09:40:24.776Z,24.23
2019-01-29T09:42:55.983Z,23.90
2019-01-29T09:45:27.406Z,20.87
2019-01-29T09:47:58.150Z,26.67
2019-01-29T09:50:30.010Z,23.70
2019-01-29T09:53:02.521Z,24.57
2019-01-29T09:55:33.377Z,30.77
2019-01-29T09:58:05.761Z,30.03
2019-01-29T10:00:38.389Z,19.03
2019-01-29T10:03:09.910Z,28.90
2019-01-29T10:05:41.763Z,28.03
2019-01-29T10:08:13.055Z,21.33
2019-01-29T10:10:44.982Z,23.67
2019-01-29T10:13:16.232Z,22.40
2019-01-29T10:15:47.298Z,19.03
2019-01-29T10:18:18.479Z,20.67
2019-01-29T10:20:49.488Z,19.83
2019-01-29T10:23:20.618Z,27.83
2019-01-29T10:25:51.543Z,19.23
2019-01-29T10:28:22.611Z,21.10
2019-01-29T10:30:53.613Z,23.30
2019-01-29T10:33:24.898Z,24.40
2019-01-29T10:35:56.056Z,17.40
2019-01-29T10:38:27.365Z,21.17
2019-01-29T10:40:59.258Z,22.90
2019-01-29T10:43:31.292Z,21.77
2019-01-29T10:46:02.280Z,18.23
2019-01-29T10:48:33.898Z,17.10
2019-01-29T10:51:05.001Z,18.50
2019-01-29T10:53:37.164Z,19.03
2019-01-29T10:56:08.213Z,18.90
2019-01-29T10:58:40.537Z,18.83
2019-01-29T11:01:11.872Z,15.20
2019-01-29T11:03:42.733Z,15.87
2019-01-29T11:06:13.874Z,16.90
2019-01-29T11:08:44.946Z,11.47
2019-01-29T11:11:16.104Z,17.97
2019-01-29T11:13:47.007Z,15.93
2019-01-29T11:16:18.821Z,14.30
2019-01-29T11:18:52.021Z,11.30
2019-01-29T11:21:23.577Z,16.33
2019-01-29T11:23:54.657Z,14.27
2019-01-29T11:26:25.721Z,12.27
2019-01-29T11:28:57.029Z,9.60
2019-01-29T11:31:29.577Z,13.17
2019-01-29T11:34:02.272Z,13.23
2019-01-29T11:36:51.355Z,16.80
2019-01-29T11:50:06.115Z,10.30
2019-01-29T11:56:04.867Z,7.93
2019-01-29T11:58:52.230Z,12.83
2019-01-29T12:01:36.694Z,10.03
2019-01-29T12:04:20.011Z,11.50
2019-01-29T12:07:03.879Z,7.43
2019-01-29T12:09:51.427Z,10.70
2019-01-29T12:12:35.659Z,10.23
2019-01-29T12:18:30.653Z,7.80
2019-01-29T12:21:17.465Z,7.40
2019-01-29T12:24:02.213Z,10.77
2019-01-29T12:29:36.122Z,5.73
2019-01-29T12:32:23.753Z,7.07
2019-01-29T12:35:07.993Z,7.33
2019-01-29T12:37:52.479Z,8.60
2019-01-29T12:40:37.189Z,7.07
2019-01-29T12:43:24.930Z,7.63
2019-01-29T12:48:51.954Z,6.67
2019-01-29T12:52:04.931Z,10.33
2019-01-29T12:54:53.855Z,7.60
2019-01-29T12:57:46.428Z,7.57
2019-01-29T13:03:45.191Z,6.13
2019-01-29T13:06:32.505Z,8.00
2019-01-29T13:09:50.310Z,12.13
2019-01-29T13:12:41.181Z,5.40
2019-01-29T13:18:27.219Z,9.20
2019-01-29T13:21:13.906Z,7.60
2019-01-29T13:23:57.174Z,4.27
2019-01-29T13:26:44.713Z,5.37
2019-01-29T13:29:33.500Z,8.13
2019-01-29T13:35:06.455Z,4.23
2019-01-29T13:37:43.015Z,4.27
2019-01-29T13:40:31.191Z,5.27
2019-01-29T13:43:18.434Z,3.67
2019-01-29T13:46:07.231Z,10.83
2019-01-29T13:48:54.726Z,6.03
2019-01-29T13:51:40.548Z,4.33
2019-01-29T13:57:20.116Z,4.30
2019-01-29T14:00:05.608Z,6.40
2019-01-29T14:02:52.540Z,5.27
2019-01-29T14:05:36.838Z,5.30
2019-01-29T14:08:22.394Z,5.57
2019-01-29T14:11:08.443Z,2.83
2019-01-29T14:13:54.669Z,6.43
2019-01-29T14:16:36.767Z,6.17
2019-01-29T14:19:24.310Z,7.93
2019-01-29T14:30:50.196Z,3.97
2019-01-29T14:33:38.340Z,8.00
2019-01-29T14:36:27.131Z,5.03
2019-01-29T14:39:15.690Z,6.67
2019-01-29T14:42:05.489Z,6.67
2019-01-29T14:44:51.615Z,6.20
2019-01-29T14:47:36.888Z,9.67
2019-01-29T14:50:23.568Z,4.10
2019-01-29T14:53:11.058Z,8.73
2019-01-29T14:56:02.321Z,6.50
2019-01-29T14:58:48.282Z,6.40
2019-01-29T15:01:34.974Z,7.87
2019-01-29T15:04:19.378Z,10.47
2019-01-29T15:07:03.386Z,13.43
2019-01-29T15:09:55.216Z,8.03
2019-01-29T15:12:40.725Z,7.67
2019-01-29T15:15:24.117Z,8.93
2019-01-29T15:18:16.895Z,7.80
2019-01-29T15:21:05.382Z,6.60
2019-01-29T15:23:52.838Z,12.33
2019-01-29T15:26:39.440Z,7.03
2019-01-29T15:29:23.849Z,7.87
2019-01-29T15:32:08.314Z,5.63
2019-01-29T15:37:55.815Z,6.87
2019-01-29T15:40:44.889Z,11.27
2019-01-29T15:43:30.751Z,9.03
2019-01-29T15:46:16.955Z,7.63
2019-01-29T15:51:55.416Z,8.60
2019-01-29T15:54:41.977Z,8.87
2019-01-29T15:57:32.914Z,6.13
2019-01-29T16:00:25.040Z,7.77
2019-01-29T16:03:13.170Z,7.27
2019-01-29T16:06:00.313Z,6.83
2019-01-29T16:14:50.766Z,8.67
2019-01-29T16:17:45.682Z,11.07
2019-01-29T16:20:36.719Z,6.97
2019-01-29T16:26:26.029Z,7.50
2019-01-29T16:29:02.575Z,9.40
2019-01-29T16:31:48.512Z,8.97
2019-01-29T16:34:37.980Z,10.90
2019-01-29T16:37:27.971Z,15.40
2019-01-29T16:40:20.911Z,9.03
2019-01-29T16:43:10.407Z,9.53
2019-01-29T16:48:54.965Z,10.73
2019-01-29T16:51:28.404Z,9.03
2019-01-29T16:54:14.934Z,10.30
2019-01-29T16:57:16.714Z,14.90
2019-01-29T17:11:49.194Z,9.73
2019-01-29T17:14:35.676Z,6.73
2019-01-29T17:17:25.016Z,12.87
2019-01-29T17:20:12.989Z,9.63
2019-01-29T17:22:58.735Z,10.00
2019-01-29T17:25:45.246Z,11.90
2019-01-29T17:31:26.080Z,12.17
2019-01-29T17:34:15.878Z,10.70
2019-01-29T17:37:02.794Z,11.87
2019-01-29T17:56:04.274Z,9.10
2019-01-29T17:59:40.872Z,9.93
2019-01-29T18:05:10.357Z,10.57
2019-01-29T18:08:49.444Z,10.20
2019-01-29T18:11:20.806Z,8.43
2019-01-29T18:17:07.397Z,9.50
2019-01-29T18:20:00.638Z,7.63
2019-01-29T18:22:48.591Z,11.17
2019-01-29T18:25:37.010Z,8.73
2019-01-29T18:28:25.282Z,9.23
2019-01-29T18:31:19.826Z,10.30
2019-01-29T18:37:20.126Z,10.90
2019-01-29T18:43:06.538Z,9.17
2019-01-29T18:45:58.933Z,11.57
2019-01-29T18:48:45.934Z,9.57
2019-01-29T18:51:31.208Z,10.20
2019-01-29T18:54:17.346Z,10.70
2019-01-29T18:57:09.610Z,9.77
2019-01-29T19:00:00.195Z,10.53
2019-01-29T19:02:54.357Z,10.83
2019-01-29T19:08:27.621Z,9.00
2019-01-29T19:11:19.389Z,10.93
2019-01-29T19:14:07.505Z,12.07
2019-01-29T19:16:55.324Z,8.97
2019-01-29T19:22:28.439Z,13.93
2019-01-29T19:25:18.991Z,9.50
2019-01-29T19:28:05.029Z,11.63
2019-01-29T19:33:38.909Z,9.53
2019-01-29T19:36:26.116Z,9.50
2019-01-29T19:39:14.463Z,10.40
2019-01-29T19:44:37.120Z,6.90
2019-01-29T19:47:22.620Z,9.93
2019-01-29T19:53:05.963Z,13.83
2019-01-29T19:55:51.069Z,9.30
2019-01-29T19:58:38.103Z,12.73
2019-01-29T20:01:25.662Z,11.77
2019-01-29T20:07:11.041Z,11.17
2019-01-29T20:09:58.746Z,7.37
2019-01-29T20:12:45.387Z,8.57
2019-01-29T20:15:38.616Z,14.00
2019-01-29T20:18:25.027Z,12.33
2019-01-29T20:24:05.894Z,10.73
2019-01-29T20:30:10.104Z,10.47
2019-01-29T20:39:12.360Z,8.73
2019-01-29T20:42:01.175Z,10.07
2019-01-29T20:44:49.413Z,11.17
2019-01-29T20:47:35.715Z,10.17
2019-01-29T20:50:21.930Z,9.60
2019-01-29T20:53:08.305Z,11.53
2019-01-29T20:55:55.835Z,12.73
2019-01-29T21:01:44.819Z,11.67
2019-01-29T21:07:43.743Z,11.03
2019-01-29T21:10:51.962Z,8.73
2019-01-29T21:13:41.661Z,10.80
2019-01-29T21:16:33.138Z,12.57
2019-01-29T21:19:21.403Z,10.90
2019-01-29T21:27:58.362Z,11.90
2019-01-29T21:30:44.147Z,10.40
2019-01-29T21:33:31.355Z,10.70
2019-01-29T21:42:06.861Z,7.00
2019-01-29T21:44:55.196Z,7.17
2019-01-29T21:50:38.136Z,9.90
2019-01-29T21:53:25.026Z,8.43
2019-01-29T21:56:15.658Z,6.87
2019-01-29T21:59:01.492Z,6.47
2019-01-29T22:01:47.886Z,6.40
2019-01-29T22:04:35.372Z,7.27
2019-01-29T22:07:21.659Z,5.83
2019-01-29T22:10:04.974Z,5.50
2019-01-29T22:12:58.702Z,6.70
2019-01-29T22:15:46.597Z,6.07
2019-01-29T22:18:37.739Z,4.00
2019-01-29T22:21:25.559Z,6.67
2019-01-29T22:24:03.276Z,5.97
2019-01-29T22:26:37.680Z,8.33
2019-01-29T22:32:03.122Z,7.27
2019-01-29T22:34:37.756Z,7.87
2019-01-29T22:37:30.574Z,7.93
2019-01-29T22:40:18.110Z,8.63
2019-01-29T22:43:03.499Z,6.53
2019-01-29T22:45:54.872Z,8.17
2019-01-29T22:52:06.602Z,10.63
2019-01-29T22:54:51.874Z,6.60
2019-01-29T23:00:27.874Z,8.27
2019-01-29T23:03:15.738Z,7.57
2019-01-29T23:06:06.077Z,9.70
2019-01-29T23:08:42.308Z,9.67
2019-01-29T23:11:29.616Z,5.57
2019-01-29T23:14:15.591Z,6.80
2019-01-29T23:17:03.851Z,10.23
2019-01-29T23:19:50.452Z,10.10
2019-01-29T23:22:40.570Z,8.27
2019-01-29T23:25:31.336Z,7.40
2019-01-29T23:28:18.240Z,6.50
2019-01-29T23:31:03.482Z,9.03
2019-01-29T23:33:38.733Z,6.53
2019-01-29T23:36:33.174Z,7.03
2019-01-29T23:39:22.905Z,9.30
2019-01-29T23:42:10.248Z,8.10
2019-01-29T23:44:56.736Z,7.73
2019-01-29T23:50:34.471Z,11.63
2019-01-29T23:53:23.451Z,6.60
2019-01-29T23:56:09.817Z,9.20
2019-01-29T23:58:54.975Z,7.80
